createdAt,value
2019-05-06T00:00:13.794Z,16.6
2019-05-06T00:02:58.440Z,16.4
2019-05-06T00:11:12.386Z,15.9
2019-05-06T00:16:41.663Z,15.9
2019-05-06T00:19:26.313Z,15.9
2019-05-06T00:33:09.519Z,15.7
2019-05-06T00:35:54.167Z,16.1
2019-05-06T00:37:25.051Z,15.3
2019-05-06T00:41:23.463Z,15.1
2019-05-06T00:44:08.114Z,14.7
2019-05-06T00:49:37.397Z,14.9
2019-05-06T00:52:22.039Z,15.3
2019-05-06T01:00:36.224Z,14.8
2019-05-06T01:03:20.617Z,13.9
2019-05-06T01:04:51.486Z,14.1
2019-05-06T01:06:05.262Z,14.5
2019-05-06T01:08:49.909Z,14.6
2019-05-06T01:14:19.196Z,14
2019-05-06T01:17:03.835Z,13.9
2019-05-06T01:22:33.114Z,13.8
2019-05-06T01:25:17.761Z,13.3
2019-05-06T01:30:47.106Z,13.6
2019-05-06T01:32:17.924Z,13.1
2019-05-06T01:39:00.098Z,13.4
2019-05-06T01:41:45.632Z,13.6
2019-05-06T01:44:30.273Z,12.8
2019-05-06T01:47:14.909Z,13
2019-05-06T01:49:59.552Z,13.4
2019-05-06T01:52:44.200Z,13.6
2019-05-06T01:55:28.832Z,12.8
2019-05-06T01:59:44.365Z,12.9
2019-05-06T02:06:27.415Z,12.8
2019-05-06T02:11:56.710Z,12.8
2019-05-06T02:20:10.642Z,11.7
2019-05-06T02:22:55.275Z,12.5
2019-05-06T02:27:10.799Z,11.9
2019-05-06T02:31:09.021Z,11.7
2019-05-06T02:42:07.786Z,11
2019-05-06T02:44:52.428Z,11.3
2019-05-06T02:47:37.098Z,10.9
2019-05-06T02:53:06.036Z,11.8
2019-05-06T02:54:37.238Z,11.1
2019-05-06T02:55:51.118Z,11.2
2019-05-06T03:01:20.030Z,11.6
2019-05-06T03:04:04.946Z,11.3
2019-05-06T03:09:34.224Z,10.4
2019-05-06T03:12:19.143Z,10.3
2019-05-06T03:17:48.244Z,10.4
2019-05-06T03:20:32.796Z,10.2
2019-05-06T03:22:03.685Z,10.9
2019-05-06T03:26:05.122Z,10.2
2019-05-06T03:28:46.740Z,10.1
2019-05-06T03:34:16.030Z,9.3
2019-05-06T03:37:00.673Z,10.1
2019-05-06T03:45:14.593Z,10.1
2019-05-06T03:49:30.121Z,9.9
2019-05-06T03:50:43.900Z,9.8
2019-05-06T03:53:28.546Z,9.8
2019-05-06T03:58:57.831Z,9.7
2019-05-06T04:01:42.468Z,9.9
2019-05-06T04:07:11.755Z,9
2019-05-06T04:09:56.406Z,9.8
2019-05-06T04:16:56.573Z,10.3
2019-05-06T04:23:39.627Z,11.6
2019-05-06T04:26:24.272Z,11.2
2019-05-06T04:31:53.585Z,11.2
2019-05-06T04:34:38.192Z,12.4
2019-05-06T04:40:07.486Z,12.3
2019-05-06T04:42:52.121Z,12
2019-05-06T04:44:23.013Z,13
2019-05-06T04:56:35.356Z,11.8
2019-05-06T04:59:20.002Z,12.6
2019-05-06T05:04:49.289Z,11.6
2019-05-06T05:07:33.933Z,11.8
2019-05-06T05:11:49.461Z,12.1
2019-05-06T05:13:03.261Z,11.9
2019-05-06T05:15:47.872Z,12.2
2019-05-06T05:29:31.103Z,17.1
2019-05-06T05:32:15.724Z,14
2019-05-06T05:35:00.372Z,10.4
2019-05-06T05:37:45.009Z,6.9
2019-05-06T05:39:15.899Z,7.2
2019-05-06T05:40:29.666Z,6.6
2019-05-06T05:43:14.307Z,8.2
2019-05-06T05:45:58.949Z,7.4
2019-05-06T05:48:43.063Z,8.8
2019-05-06T05:51:27.476Z,6.7
2019-05-06T05:52:57.995Z,8.5
2019-05-06T05:54:28.511Z,7
2019-05-06T05:55:59.013Z,8.8
2019-05-06T05:57:29.525Z,7.5
2019-05-06T06:02:01.067Z,8.2
2019-05-06T06:03:31.625Z,6.8
2019-05-06T06:05:02.095Z,7.4
2019-05-06T06:06:32.606Z,7.8
2019-05-06T06:07:45.781Z,6.5
2019-05-06T06:08:58.951Z,7.3
2019-05-06T06:10:29.046Z,7
2019-05-06T06:11:59.098Z,7.1
2019-05-06T06:13:30.496Z,7.5
2019-05-06T06:15:01.008Z,7.7
2019-05-06T06:16:31.515Z,5.9
2019-05-06T06:18:02.033Z,6.8
2019-05-06T06:19:32.538Z,6.9
2019-05-06T06:21:03.059Z,6.8
2019-05-06T06:22:33.585Z,7.5
2019-05-06T06:23:46.749Z,7.6
2019-05-06T06:24:59.911Z,23.7
2019-05-06T06:26:30.425Z,22.2
2019-05-06T06:28:00.968Z,14.8
2019-05-06T06:29:31.457Z,15
2019-05-06T06:31:01.975Z,9.2
2019-05-06T06:34:03.060Z,9
2019-05-06T06:35:33.504Z,6.1
2019-05-06T06:37:04.002Z,6
2019-05-06T06:38:34.052Z,5.6
2019-05-06T06:39:47.706Z,6.1
2019-05-06T06:41:00.889Z,6
2019-05-06T06:42:31.039Z,6.3
2019-05-06T06:45:32.414Z,5.9
2019-05-06T06:47:02.934Z,5.9
2019-05-06T06:50:03.966Z,6.6
2019-05-06T06:51:34.479Z,5.8
2019-05-06T06:53:04.977Z,6.7
2019-05-06T06:54:35.528Z,5.5
2019-05-06T06:55:48.071Z,5.6
2019-05-06T07:00:02.882Z,6
2019-05-06T07:01:33.379Z,10.4
2019-05-06T07:03:03.089Z,6.3
2019-05-06T07:04:34.409Z,10.6
2019-05-06T07:06:04.091Z,7.8
2019-05-06T07:10:36.475Z,6.5
2019-05-06T07:11:49.623Z,5.2
2019-05-06T07:14:33.320Z,4.8
2019-05-06T07:19:04.855Z,4.2
2019-05-06T07:20:35.365Z,4.8
2019-05-06T07:23:36.391Z,4.3
2019-05-06T07:25:07.000Z,4.2
2019-05-06T07:27:50.477Z,3.8
2019-05-06T07:29:03.629Z,4.3
2019-05-06T07:30:34.130Z,3.7
2019-05-06T07:33:35.015Z,4.5
2019-05-06T07:35:05.670Z,3.7
2019-05-06T07:38:06.710Z,3.7
2019-05-06T07:39:37.225Z,4
2019-05-06T07:41:07.738Z,4.1
2019-05-06T07:42:38.236Z,4.6
2019-05-06T07:43:51.409Z,4.6
2019-05-06T07:45:04.580Z,3.7
2019-05-06T07:48:05.616Z,4.4
2019-05-06T07:49:36.125Z,4.1
2019-05-06T07:51:06.628Z,3.9
2019-05-06T07:52:37.145Z,4.4
2019-05-06T07:54:07.743Z,4.9
2019-05-06T07:57:08.688Z,3.9
2019-05-06T07:58:39.193Z,4.7
2019-05-06T07:59:52.377Z,3.9
2019-05-06T08:01:05.548Z,4
2019-05-06T08:02:36.052Z,3.9
2019-05-06T08:04:06.878Z,4.1
2019-05-06T08:07:07.600Z,3.9
2019-05-06T08:08:38.102Z,3.5
2019-05-06T08:10:08.624Z,3.1
2019-05-06T08:13:09.652Z,3.6
2019-05-06T08:15:53.206Z,3.8
2019-05-06T08:18:36.889Z,3.4
2019-05-06T08:20:07.038Z,3.5
2019-05-06T08:21:37.090Z,3.1
2019-05-06T08:23:08.425Z,3.6
2019-05-06T08:26:09.489Z,3
2019-05-06T08:30:41.030Z,2.8
2019-05-06T08:31:54.157Z,3.2
2019-05-06T08:33:07.338Z,3.5
2019-05-06T08:34:37.847Z,3
2019-05-06T08:37:38.875Z,2.6
2019-05-06T08:42:10.414Z,2.8
2019-05-06T08:43:40.925Z,2.7
2019-05-06T08:47:54.984Z,3.1
2019-05-06T08:50:38.674Z,2.6
2019-05-06T08:52:09.181Z,2.7
2019-05-06T08:56:40.720Z,2.4
2019-05-06T08:59:41.754Z,3.1
2019-05-06T09:01:12.259Z,2.4
2019-05-06T09:03:55.798Z,3
2019-05-06T09:05:08.986Z,2.6
2019-05-06T09:06:39.581Z,2.8
2019-05-06T09:08:10.002Z,2.2
2019-05-06T09:09:40.516Z,2.4
2019-05-06T09:11:11.103Z,2.4
2019-05-06T09:15:42.565Z,3
2019-05-06T09:17:13.084Z,3
2019-05-06T09:18:43.597Z,3.2
2019-05-06T09:21:09.847Z,2.6
2019-05-06T09:22:40.032Z,2.6
2019-05-06T09:24:10.831Z,2.7
2019-05-06T09:25:41.359Z,3
2019-05-06T09:28:42.369Z,2.8
2019-05-06T09:30:12.887Z,3.8
2019-05-06T09:33:13.903Z,2.8
2019-05-06T09:34:44.417Z,3.4
2019-05-06T09:35:57.602Z,3.5
2019-05-06T09:37:10.773Z,3.4
2019-05-06T09:40:11.800Z,2.5
2019-05-06T09:43:12.827Z,2.7
2019-05-06T09:47:44.381Z,2.7
2019-05-06T09:49:14.881Z,2.7
2019-05-06T09:50:45.390Z,2.4
2019-05-06T09:51:58.567Z,3.3
2019-05-06T09:53:11.606Z,2.5
2019-05-06T09:54:42.106Z,2.8
2019-05-06T09:57:43.190Z,2.8
2019-05-06T09:59:13.645Z,2.8
2019-05-06T10:00:44.191Z,3.1
2019-05-06T10:02:14.675Z,2.7
2019-05-06T10:03:45.208Z,2.7
2019-05-06T10:05:15.697Z,2.8
2019-05-06T10:06:46.320Z,2.4
2019-05-06T10:07:59.243Z,2.7
2019-05-06T10:13:43.953Z,2.8
2019-05-06T10:15:14.483Z,2.4
2019-05-06T10:18:15.630Z,3
2019-05-06T10:21:16.527Z,2.4
2019-05-06T10:22:47.025Z,2.7
2019-05-06T10:24:00.202Z,2.2
2019-05-06T10:25:13.384Z,2.6
2019-05-06T10:26:43.896Z,2.5
2019-05-06T10:28:14.409Z,2.5
2019-05-06T10:32:45.945Z,37.8
2019-05-06T10:35:46.966Z,13.9
2019-05-06T10:37:17.491Z,30.2
2019-05-06T10:38:47.993Z,5.2
2019-05-06T10:42:44.715Z,18.8
2019-05-06T10:44:15.390Z,15.3
2019-05-06T10:45:45.745Z,9.9
2019-05-06T10:47:16.251Z,17.3
2019-05-06T10:50:17.278Z,19.1
2019-05-06T10:51:47.792Z,5.1
2019-05-06T10:54:48.823Z,4.1
2019-05-06T10:56:02.072Z,12.5
2019-05-06T10:57:14.892Z,4
2019-05-06T11:00:15.918Z,11.9
2019-05-06T11:01:46.419Z,2.9
2019-05-06T11:06:17.970Z,3
2019-05-06T11:07:48.049Z,2
2019-05-06T11:09:18.994Z,2.9
2019-05-06T11:10:49.049Z,2.4
2019-05-06T11:12:02.675Z,2.4
2019-05-06T11:14:46.359Z,2.4
2019-05-06T11:16:16.870Z,2.7
2019-05-06T11:17:47.043Z,2.6
2019-05-06T11:19:17.897Z,2.2
2019-05-06T11:20:48.424Z,2.4
2019-05-06T11:22:18.956Z,2.9
2019-05-06T11:25:19.948Z,2.8
2019-05-06T11:26:50.046Z,4.1
2019-05-06T11:28:03.640Z,3.5
2019-05-06T11:29:16.807Z,3.5
2019-05-06T11:30:47.326Z,3.2
2019-05-06T11:33:48.346Z,3
2019-05-06T11:35:18.862Z,3
2019-05-06T11:36:49.377Z,3.2
2019-05-06T11:38:19.976Z,2.9
2019-05-06T11:41:20.919Z,2.7
2019-05-06T11:42:51.428Z,2.7
2019-05-06T11:44:04.604Z,2.6
2019-05-06T11:45:17.779Z,3.1
2019-05-06T11:48:18.805Z,3.2
2019-05-06T11:49:49.319Z,2.8
2019-05-06T11:51:19.830Z,3.1
2019-05-06T11:52:50.341Z,2.5
2019-05-06T11:54:20.860Z,2.8
2019-05-06T11:55:51.372Z,2.6
2019-05-06T11:58:52.398Z,2.5
2019-05-06T12:02:49.127Z,2.3
2019-05-06T12:04:19.686Z,2.6
2019-05-06T12:05:50.154Z,2.7
2019-05-06T12:08:51.164Z,2.9
2019-05-06T12:11:52.192Z,9.3
2019-05-06T12:13:22.712Z,5.3
2019-05-06T12:14:53.216Z,4.1
2019-05-06T12:16:06.395Z,5.1
2019-05-06T12:17:19.461Z,4.5
2019-05-06T12:18:49.940Z,5.1
2019-05-06T12:21:50.989Z,4.2
2019-05-06T12:23:21.483Z,4.5
2019-05-06T12:24:51.982Z,3.6
2019-05-06T12:26:22.564Z,3.2
2019-05-06T12:27:53.001Z,2.8
2019-05-06T12:30:54.037Z,3
2019-05-06T12:32:07.227Z,2.9
2019-05-06T12:33:20.248Z,2.8
2019-05-06T12:34:50.752Z,2.8
2019-05-06T12:36:21.270Z,2.8
2019-05-06T12:37:51.837Z,2.8
2019-05-06T12:42:23.321Z,2.4
2019-05-06T12:43:53.833Z,2.3
2019-05-06T12:45:24.346Z,2.7
2019-05-06T12:46:54.085Z,2.5
2019-05-06T12:48:08.037Z,2.3
2019-05-06T12:49:21.069Z,2.4
2019-05-06T12:52:22.088Z,2.3
2019-05-06T12:53:52.602Z,2.4
2019-05-06T12:59:54.647Z,2.3
2019-05-06T13:01:25.165Z,2.4
2019-05-06T13:04:08.071Z,2.3
2019-05-06T13:05:21.893Z,2.6
2019-05-06T13:06:52.397Z,2.7
2019-05-06T13:09:53.421Z,2.8
2019-05-06T13:11:23.933Z,2.5
2019-05-06T13:14:24.958Z,2.9
2019-05-06T13:15:55.477Z,2.7
2019-05-06T13:20:09.533Z,2.9
2019-05-06T13:21:22.707Z,3.1
2019-05-06T13:25:54.243Z,3
2019-05-06T13:27:24.746Z,2.7
2019-05-06T13:30:25.779Z,2.8
2019-05-06T13:33:26.807Z,2.8
2019-05-06T13:34:57.316Z,2.9
2019-05-06T13:36:10.488Z,2.8
2019-05-06T13:37:23.525Z,2.9
2019-05-06T13:38:54.032Z,2.8
2019-05-06T13:40:24.550Z,2.6
2019-05-06T13:44:56.079Z,2.4
2019-05-06T13:49:27.634Z,2.1
2019-05-06T13:50:58.127Z,2.2
2019-05-06T13:52:11.314Z,2.3
2019-05-06T13:53:24.486Z,2.6
2019-05-06T13:54:55.000Z,2.5
2019-05-06T13:56:25.511Z,2.5
2019-05-06T13:57:56.027Z,2.4
2019-05-06T13:59:26.530Z,2.6
2019-05-06T14:00:57.042Z,2.4
2019-05-06T14:03:58.066Z,2.5
2019-05-06T14:05:28.611Z,2.3
2019-05-06T14:08:12.129Z,2.3
2019-05-06T14:09:25.171Z,2.5
2019-05-06T14:10:55.673Z,2.3
2019-05-06T14:12:26.236Z,2.9
2019-05-06T14:15:27.213Z,3.3
2019-05-06T14:16:57.719Z,3
2019-05-06T14:18:28.231Z,3.2
2019-05-06T14:22:59.777Z,3.3
2019-05-06T14:24:12.954Z,3.3
2019-05-06T14:25:26.126Z,3.3
2019-05-06T14:26:56.631Z,2.8
2019-05-06T14:28:27.168Z,3.1
2019-05-06T14:31:28.017Z,2.9
2019-05-06T14:32:58.074Z,2.6
2019-05-06T14:35:59.071Z,3.2
2019-05-06T14:37:30.224Z,3.4
2019-05-06T14:39:00.734Z,3.2
2019-05-06T14:40:13.913Z,3.6
2019-05-06T14:41:27.009Z,4.6
2019-05-06T14:42:57.607Z,3.4
2019-05-06T14:45:58.636Z,4.7
2019-05-06T14:47:29.140Z,5.1
2019-05-06T14:48:59.643Z,5.4
2019-05-06T14:50:30.151Z,5.6
2019-05-06T14:52:00.669Z,7.8
2019-05-06T14:53:31.175Z,8.1
2019-05-06T14:55:01.689Z,6
2019-05-06T14:56:14.879Z,4.7
2019-05-06T15:00:28.926Z,3.9
2019-05-06T15:01:59.437Z,4.5
2019-05-06T15:05:00.464Z,3.7
2019-05-06T15:06:30.976Z,3.8
2019-05-06T15:08:01.506Z,3.7
2019-05-06T15:11:02.508Z,4.3
2019-05-06T15:12:15.682Z,3.5
2019-05-06T15:13:28.870Z,4.7
2019-05-06T15:14:59.037Z,4.3
2019-05-06T15:16:29.884Z,4.7
2019-05-06T15:19:30.950Z,6.8
2019-05-06T15:21:01.465Z,6.2
2019-05-06T15:22:31.932Z,7.5
2019-05-06T15:25:33.000Z,4.8
2019-05-06T15:27:03.483Z,4.7
2019-05-06T15:28:16.653Z,4.6
2019-05-06T15:29:29.829Z,4.4
2019-05-06T15:32:30.857Z,8.3
2019-05-06T15:34:01.357Z,6.5
2019-05-06T15:35:31.878Z,5.4
2019-05-06T15:38:32.935Z,5.6
2019-05-06T15:40:03.041Z,5.7
2019-05-06T15:41:33.923Z,3.6
2019-05-06T15:43:04.447Z,4.6
2019-05-06T15:44:17.607Z,5
2019-05-06T15:45:30.797Z,4.5
2019-05-06T15:47:01.299Z,4.5
2019-05-06T15:48:31.832Z,4.7
2019-05-06T15:50:02.320Z,4.4
2019-05-06T15:51:32.840Z,4.5
2019-05-06T15:53:03.353Z,4.1
2019-05-06T15:54:33.864Z,3.7
2019-05-06T15:56:04.369Z,4.4
2019-05-06T15:57:34.886Z,4
2019-05-06T15:59:05.397Z,4.6
2019-05-06T16:00:18.005Z,4.2
2019-05-06T16:03:02.026Z,29.9
2019-05-06T16:04:32.775Z,7.8
2019-05-06T16:06:03.284Z,25.5
2019-05-06T16:07:33.797Z,12.1
2019-05-06T16:09:04.349Z,6.8
2019-05-06T16:10:34.823Z,10.3
2019-05-06T16:13:35.843Z,4.9
2019-05-06T16:15:06.355Z,3.6
2019-05-06T16:16:19.528Z,3.7
2019-05-06T16:17:32.710Z,3.2
2019-05-06T16:19:03.215Z,3.5
2019-05-06T16:22:04.248Z,3.2
2019-05-06T16:23:34.077Z,3.2
2019-05-06T16:25:05.292Z,4.2
2019-05-06T16:26:35.776Z,4.7
2019-05-06T16:28:06.291Z,3.6
2019-05-06T16:29:36.799Z,3
2019-05-06T16:31:07.314Z,3.3
2019-05-06T16:32:20.495Z,3.4
2019-05-06T16:33:33.672Z,3.9
2019-05-06T16:35:04.187Z,3.4
2019-05-06T16:36:34.698Z,3.6
2019-05-06T16:38:05.216Z,3.6
2019-05-06T16:41:06.227Z,3.7
2019-05-06T16:42:36.748Z,3.6
2019-05-06T16:44:07.256Z,3.8
2019-05-06T16:45:37.766Z,3.3
2019-05-06T16:47:08.273Z,3.1
2019-05-06T16:48:21.460Z,2.8
2019-05-06T16:49:34.642Z,3.1
2019-05-06T16:52:35.647Z,3.1
2019-05-06T16:55:36.689Z,3
2019-05-06T16:57:07.186Z,2.7
2019-05-06T16:58:37.075Z,3.2
2019-05-06T17:00:08.215Z,2.9
2019-05-06T17:01:38.741Z,2.5
2019-05-06T17:03:09.025Z,3
2019-05-06T17:04:22.411Z,2.8
2019-05-06T17:07:06.107Z,3
2019-05-06T17:08:36.613Z,3.1
2019-05-06T17:10:07.122Z,3.8
2019-05-06T17:11:37.643Z,2.9
2019-05-06T17:14:38.685Z,3.3
2019-05-06T17:16:09.173Z,3.6
2019-05-06T17:20:23.235Z,3.2
2019-05-06T17:21:36.408Z,3.5
2019-05-06T17:23:06.920Z,3.2
2019-05-06T17:24:37.434Z,3.7
2019-05-06T17:26:07.939Z,3.5
2019-05-06T17:30:39.486Z,3.9
2019-05-06T17:33:40.509Z,3.2
2019-05-06T17:35:11.031Z,3.2
2019-05-06T17:36:24.198Z,3.3
2019-05-06T17:37:38.346Z,3
2019-05-06T17:39:07.883Z,3.3
2019-05-06T17:40:38.395Z,3.2
2019-05-06T17:42:08.911Z,3.1
2019-05-06T17:43:39.418Z,3.2
2019-05-06T17:45:09.931Z,3.5
2019-05-06T17:46:40.044Z,4.1
2019-05-06T17:49:41.468Z,3.7
2019-05-06T17:51:11.992Z,4.1
2019-05-06T17:52:25.158Z,4.1
2019-05-06T17:53:38.336Z,3.8
2019-05-06T17:55:08.852Z,3.6
2019-05-06T17:58:09.874Z,3.8
2019-05-06T17:59:40.381Z,3.8
2019-05-06T18:04:11.921Z,5.7
2019-05-06T18:05:42.439Z,6.7
2019-05-06T18:07:12.948Z,5.6
2019-05-06T18:08:26.127Z,5
2019-05-06T18:09:39.302Z,5.3
2019-05-06T18:12:40.345Z,4.9
2019-05-06T18:14:10.837Z,4.2
2019-05-06T18:17:11.858Z,3
2019-05-06T18:20:12.885Z,3.1
2019-05-06T18:21:43.396Z,3
2019-05-06T18:23:13.912Z,3.2
2019-05-06T18:24:27.172Z,3
2019-05-06T18:25:40.034Z,2.7
2019-05-06T18:27:10.632Z,2.9
2019-05-06T18:28:41.166Z,3.1
2019-05-06T18:30:11.657Z,2.9
2019-05-06T18:31:42.165Z,3
2019-05-06T18:33:12.688Z,3
2019-05-06T18:34:43.205Z,3.3
2019-05-06T18:36:13.071Z,4.5
2019-05-06T18:37:44.285Z,4.6
2019-05-06T18:39:14.747Z,5.1
2019-05-06T18:41:40.944Z,3.8
2019-05-06T18:43:11.457Z,3.4
2019-05-06T18:47:42.982Z,3.9
2019-05-06T18:49:13.499Z,3.7
2019-05-06T18:50:44.011Z,4.5
2019-05-06T18:52:14.528Z,4.7
2019-05-06T18:53:45.038Z,4.4
2019-05-06T18:56:28.593Z,4
2019-05-06T18:57:41.077Z,3.8
2019-05-06T18:59:12.277Z,3.5
2019-05-06T19:00:42.800Z,3.7
2019-05-06T19:02:13.298Z,3.2
2019-05-06T19:03:43.815Z,2.9
2019-05-06T19:06:44.831Z,3
2019-05-06T19:08:15.347Z,2.3
2019-05-06T19:09:45.896Z,2.8
2019-05-06T19:11:16.375Z,3.2
2019-05-06T19:12:29.556Z,3.6
2019-05-06T19:13:42.728Z,5.1
2019-05-06T19:15:13.237Z,5.5
2019-05-06T19:16:43.744Z,5.1
2019-05-06T19:19:44.774Z,4
2019-05-06T19:21:15.290Z,5.8
2019-05-06T19:22:45.803Z,4.7
2019-05-06T19:24:16.313Z,5.3
2019-05-06T19:25:46.834Z,5.7
2019-05-06T19:28:30.379Z,6.4
2019-05-06T19:29:43.548Z,5.6
2019-05-06T19:31:14.061Z,4
2019-05-06T19:34:15.008Z,4
2019-05-06T19:35:45.596Z,3.7
2019-05-06T19:37:16.104Z,3.7
2019-05-06T19:40:17.140Z,4.2
2019-05-06T19:41:47.641Z,3.4
2019-05-06T19:43:18.156Z,4
2019-05-06T19:44:31.333Z,3.3
2019-05-06T19:45:44.718Z,3.6
2019-05-06T19:47:15.024Z,4.7
2019-05-06T19:48:45.535Z,4.4
2019-05-06T19:50:16.052Z,4.4
2019-05-06T19:51:46.557Z,4.2
2019-05-06T19:53:17.007Z,4.9
2019-05-06T19:56:18.107Z,3.2
2019-05-06T19:57:48.617Z,2.8
2019-05-06T19:59:19.121Z,2.7
2019-05-06T20:01:45.335Z,2.8
2019-05-06T20:03:15.844Z,2.8
2019-05-06T20:04:46.363Z,2.8
2019-05-06T20:06:16.872Z,2.7
2019-05-06T20:07:47.380Z,3.1
2019-05-06T20:09:17.895Z,2.6
2019-05-06T20:10:48.409Z,2.3
2019-05-06T20:12:18.091Z,2.3
2019-05-06T20:15:19.968Z,2.7
2019-05-06T20:16:33.126Z,2.4
2019-05-06T20:17:46.161Z,3.1
2019-05-06T20:19:16.668Z,3.6
2019-05-06T20:20:47.183Z,2.6
2019-05-06T20:23:48.021Z,2.7
2019-05-06T20:25:18.724Z,2.9
2019-05-06T20:26:49.266Z,3.2
2019-05-06T20:28:19.747Z,2.9
2019-05-06T20:29:50.258Z,4.9
2019-05-06T20:32:33.807Z,4
2019-05-06T20:33:46.083Z,4.3
2019-05-06T20:35:17.352Z,3.4
2019-05-06T20:36:47.855Z,4.4
2019-05-06T20:38:18.371Z,5.7
2019-05-06T20:39:48.903Z,4.4
2019-05-06T20:42:49.907Z,4.7
2019-05-06T20:44:20.425Z,4
2019-05-06T20:45:50.934Z,5.2
2019-05-06T20:47:21.521Z,6.6
2019-05-06T20:48:34.630Z,6
2019-05-06T20:51:18.318Z,4.1
2019-05-06T20:52:48.845Z,3.8
2019-05-06T20:54:19.336Z,5.9
2019-05-06T20:55:49.877Z,3.7
2019-05-06T20:57:20.361Z,4.7
2019-05-06T20:58:50.873Z,17.8
2019-05-06T21:00:21.408Z,4.1
2019-05-06T21:01:51.901Z,3.5
2019-05-06T21:04:35.448Z,4.4
2019-05-06T21:05:48.620Z,4.7
2019-05-06T21:07:19.128Z,4.7
2019-05-06T21:08:49.646Z,5
2019-05-06T21:10:20.015Z,3.5
2019-05-06T21:14:51.701Z,4.6
2019-05-06T21:16:22.202Z,4.3
2019-05-06T21:17:52.721Z,4.2
2019-05-06T21:19:23.234Z,4.4
2019-05-06T21:20:36.041Z,4.7
2019-05-06T21:21:49.597Z,4.3
2019-05-06T21:23:20.103Z,4.7
2019-05-06T21:24:50.613Z,4.7
2019-05-06T21:26:21.228Z,4.1
2019-05-06T21:27:51.630Z,4
2019-05-06T21:29:22.151Z,4.6
2019-05-06T21:32:23.176Z,4.3
2019-05-06T21:33:53.686Z,3.6
2019-05-06T21:35:24.195Z,4.7
2019-05-06T21:36:37.403Z,4.4
2019-05-06T21:37:50.040Z,4
2019-05-06T21:39:20.922Z,4.7
2019-05-06T21:40:51.436Z,5
2019-05-06T21:42:21.947Z,4.9
2019-05-06T21:43:52.046Z,4.8
2019-05-06T21:45:23.017Z,4.3
2019-05-06T21:46:53.524Z,6.1
2019-05-06T21:49:54.511Z,6.3
2019-05-06T21:51:25.019Z,4.6
2019-05-06T21:52:38.019Z,4
2019-05-06T21:53:51.375Z,4.1
2019-05-06T21:55:22.451Z,3.9
2019-05-06T21:56:52.004Z,4.4
2019-05-06T21:59:53.429Z,5.1
2019-05-06T22:02:54.453Z,4.3
2019-05-06T22:04:24.956Z,4.1
2019-05-06T22:05:55.476Z,4.5
2019-05-06T22:07:25.984Z,5.3
2019-05-06T22:08:39.162Z,4
2019-05-06T22:09:52.386Z,4.4
2019-05-06T22:11:23.039Z,4.4
2019-05-06T22:12:53.359Z,4.3
2019-05-06T22:14:23.889Z,5.4
2019-05-06T22:18:55.406Z,4.2
2019-05-06T22:21:56.441Z,4.5
2019-05-06T22:23:26.946Z,5.4
2019-05-06T22:24:40.131Z,4.8
2019-05-06T22:27:23.008Z,3.9
2019-05-06T22:28:54.340Z,4.5
2019-05-06T22:30:24.841Z,4
2019-05-06T22:31:55.349Z,3.6
2019-05-06T22:33:25.877Z,4.2
2019-05-06T22:34:56.379Z,5.5
2019-05-06T22:36:26.889Z,4.3
2019-05-06T22:37:57.400Z,4.4
2019-05-06T22:39:27.916Z,4.2
2019-05-06T22:40:41.008Z,4.4
2019-05-06T22:41:54.026Z,4.4
2019-05-06T22:43:24.776Z,4.8
2019-05-06T22:46:25.794Z,4.7
2019-05-06T22:47:56.321Z,5.2
2019-05-06T22:49:26.827Z,5.2
2019-05-06T22:50:57.335Z,4.9
2019-05-06T22:52:27.855Z,4.6
2019-05-06T22:53:58.359Z,5.6
2019-05-06T22:55:28.874Z,5.9
2019-05-06T22:56:42.047Z,6.7
2019-05-06T22:57:55.240Z,5.3
2019-05-06T22:59:25.738Z,4.3
2019-05-06T23:00:56.249Z,4.4
2019-05-06T23:02:26.766Z,4.8
2019-05-06T23:05:27.825Z,4
2019-05-06T23:08:28.819Z,4.9
2019-05-06T23:11:29.841Z,4.7
2019-05-06T23:12:43.033Z,5.6
2019-05-06T23:13:56.197Z,6.3
2019-05-06T23:19:58.241Z,6.9
2019-05-06T23:21:28.752Z,5.5
2019-05-06T23:22:59.263Z,4.5
2019-05-06T23:24:29.782Z,4.7
2019-05-06T23:26:00.295Z,4.5
2019-05-06T23:28:43.843Z,4.2
2019-05-06T23:29:57.006Z,5.1
2019-05-06T23:31:27.526Z,3.5
2019-05-06T23:32:58.141Z,4.2
2019-05-06T23:34:28.567Z,4.5
2019-05-06T23:35:59.006Z,4.9
2019-05-06T23:39:00.083Z,4.5
2019-05-06T23:40:30.598Z,4.4
2019-05-06T23:42:01.107Z,4.1
2019-05-06T23:43:31.632Z,4.8
2019-05-06T23:44:44.793Z,4.5
2019-05-06T23:45:57.975Z,5
2019-05-06T23:47:28.481Z,4
2019-05-06T23:48:58.996Z,4
2019-05-06T23:50:29.511Z,4.2
2019-05-06T23:52:00.019Z,4.9
2019-05-06T23:53:30.541Z,4.8
2019-05-06T23:55:01.052Z,4.4
2019-05-06T23:56:31.557Z,4.9
2019-05-06T23:58:02.076Z,4.9
2019-05-06T23:59:32.584Z,4.7
